sensor_id;sensor_type;location;lat;lon;timestamp;pressure;altitude;pressure_sealevel;temperature;humidity
72925;BME280;61070;50.794;7.054;2023-04-25T00:01:46;100252.31;;;7.92;87.82
72925;BME280;61070;50.794;7.054;2023-04-25T00:04:11;100258.47;;;7.91;87.51
72925;BME280;61070;50.794;7.054;2023-04-25T00:06:37;100257.69;;;7.83;87.97
72925;BME280;61070;50.794;7.054;2023-04-25T00:09:06;100259.44;;;7.85;87.46
72925;BME280;61070;50.794;7.054;2023-04-25T00:11:34;100253.28;;;7.83;88.14
72925;BME280;61070;50.794;7.054;2023-04-25T00:13:59;100262.06;;;7.84;88.78
72925;BME280;61070;50.794;7.054;2023-04-25T00:16:27;100255.88;;;7.89;88.83
72925;BME280;61070;50.794;7.054;2023-04-25T00:18:54;100261.19;;;7.83;88.83
72925;BME280;61070;50.794;7.054;2023-04-25T00:21:20;100256.72;;;7.92;88.61
72925;BME280;61070;50.794;7.054;2023-04-25T00:23:46;100259.47;;;7.82;88.53
72925;BME280;61070;50.794;7.054;2023-04-25T00:26:11;100258.66;;;7.71;89.42
72925;BME280;61070;50.794;7.054;2023-04-25T00:28:37;100263.09;;;7.65;89.99
72925;BME280;61070;50.794;7.054;2023-04-25T00:31:03;100263.97;;;7.65;89.72
72925;BME280;61070;50.794;7.054;2023-04-25T00:33:28;100264.03;;;7.59;90.02
72925;BME280;61070;50.794;7.054;2023-04-25T00:35:53;100259.69;;;7.50;90.60
72925;BME280;61070;50.794;7.054;2023-04-25T00:38:19;100264.16;;;7.39;91.41
72925;BME280;61070;50.794;7.054;2023-04-25T00:40:44;100269.44;;;7.38;91.82
72925;BME280;61070;50.794;7.054;2023-04-25T00:43:09;100257.13;;;7.38;92.07
72925;BME280;61070;50.794;7.054;2023-04-25T00:45:37;100268.63;;;7.25;91.59
72925;BME280;61070;50.794;7.054;2023-04-25T00:48:04;100256.28;;;7.30;91.33
72925;BME280;61070;50.794;7.054;2023-04-25T00:50:29;100253.75;;;7.16;91.49
72925;BME280;61070;50.794;7.054;2023-04-25T00:52:55;100253.75;;;7.16;91.71
72925;BME280;61070;50.794;7.054;2023-04-25T00:55:21;100259.91;;;7.09;92.39
72925;BME280;61070;50.794;7.054;2023-04-25T00:57:46;100247.63;;;7.10;92.27
72925;BME280;61070;50.794;7.054;2023-04-25T01:00:12;100255.56;;;6.99;92.81
72925;BME280;61070;50.794;7.054;2023-04-25T01:02:40;100244.16;;;7.00;92.30
72925;BME280;61070;50.794;7.054;2023-04-25T01:05:06;100245.91;;;6.98;92.57
72925;BME280;61070;50.794;7.054;2023-04-25T01:07:31;100254.75;;;6.92;92.39
72925;BME280;61070;50.794;7.054;2023-04-25T01:09:57;100250.31;;;6.96;92.06
72925;BME280;61070;50.794;7.054;2023-04-25T01:12:23;100250.41;;;6.81;92.83
72925;BME280;61070;50.794;7.054;2023-04-25T01:14:49;100251.25;;;6.84;92.47
72925;BME280;61070;50.794;7.054;2023-04-25T01:17:14;100255.66;;;6.82;93.00
72925;BME280;61070;50.794;7.054;2023-04-25T01:19:41;100260.91;;;6.85;92.36
72925;BME280;61070;50.794;7.054;2023-04-25T01:22:06;100254.72;;;6.89;92.66
72925;BME280;61070;50.794;7.054;2023-04-25T01:24:32;100258.34;;;6.70;93.35
72925;BME280;61070;50.794;7.054;2023-04-25T01:26:58;100261.81;;;6.74;93.91
72925;BME280;61070;50.794;7.054;2023-04-25T01:29:26;100252.19;;;6.72;92.92
72925;BME280;61070;50.794;7.054;2023-04-25T01:31:52;100258.31;;;6.67;93.35
72925;BME280;61070;50.794;7.054;2023-04-25T01:34:18;100260.09;;;6.71;93.18
72925;BME280;61070;50.794;7.054;2023-04-25T01:36:43;100259.19;;;6.66;93.25
72925;BME280;61070;50.794;7.054;2023-04-25T01:39:08;100265.38;;;6.62;93.64
72925;BME280;61070;50.794;7.054;2023-04-25T01:41:34;100271.50;;;6.68;93.82
72925;BME280;61070;50.794;7.054;2023-04-25T01:44:00;100281.13;;;6.65;94.17
72925;BME280;61070;50.794;7.054;2023-04-25T01:46:26;100285.56;;;6.54;94.74
72925;BME280;61070;50.794;7.054;2023-04-25T01:48:51;100278.56;;;6.47;95.02
72925;BME280;61070;50.794;7.054;2023-04-25T01:51:17;100289.94;;;6.58;94.65
72925;BME280;61070;50.794;7.054;2023-04-25T01:53:42;100284.69;;;6.58;95.54
72925;BME280;61070;50.794;7.054;2023-04-25T01:56:08;100291.69;;;6.54;94.48
72925;BME280;61070;50.794;7.054;2023-04-25T01:58:33;100290.84;;;6.51;95.29
72925;BME280;61070;50.794;7.054;2023-04-25T02:00:59;100287.31;;;6.53;95.30
72925;BME280;61070;50.794;7.054;2023-04-25T02:03:25;100289.06;;;6.51;95.08
72925;BME280;61070;50.794;7.054;2023-04-25T02:05:50;100289.97;;;6.50;95.59
72925;BME280;61070;50.794;7.054;2023-04-25T02:08:16;100294.31;;;6.54;95.13
72925;BME280;61070;50.794;7.054;2023-04-25T02:10:42;100289.06;;;6.60;95.03
72925;BME280;61070;50.794;7.054;2023-04-25T02:13:07;100294.28;;;6.72;94.14
72925;BME280;61070;50.794;7.054;2023-04-25T02:15:32;100296.94;;;6.69;94.61
72925;BME280;61070;50.794;7.054;2023-04-25T02:17:58;100290.81;;;6.61;94.06
72925;BME280;61070;50.794;7.054;2023-04-25T02:20:25;100291.66;;;6.72;93.34
72925;BME280;61070;50.794;7.054;2023-04-25T02:22:51;100282.88;;;6.74;93.04
72925;BME280;61070;50.794;7.054;2023-04-25T02:25:17;100286.41;;;6.56;94.13
72925;BME280;61070;50.794;7.054;2023-04-25T02:27:43;100283.81;;;6.57;94.15
72925;BME280;61070;50.794;7.054;2023-04-25T02:30:08;100284.69;;;6.53;94.17
72925;BME280;61070;50.794;7.054;2023-04-25T02:32:34;100295.22;;;6.49;94.82
72925;BME280;61070;50.794;7.054;2023-04-25T02:35:00;100298.75;;;6.46;94.80
72925;BME280;61070;50.794;7.054;2023-04-25T02:37:37;100297.88;;;6.41;95.45
72925;BME280;61070;50.794;7.054;2023-04-25T02:40:02;100302.25;;;6.31;96.27
72925;BME280;61070;50.794;7.054;2023-04-25T02:42:29;100304.03;;;6.37;95.85
72925;BME280;61070;50.794;7.054;2023-04-25T02:44:54;100301.38;;;6.37;95.87
72925;BME280;61070;50.794;7.054;2023-04-25T02:47:20;100304.91;;;6.34;96.07
72925;BME280;61070;50.794;7.054;2023-04-25T02:49:45;100299.63;;;6.27;97.15
72925;BME280;61070;50.794;7.054;2023-04-25T02:52:11;100304.00;;;6.32;96.06
72925;BME280;61070;50.794;7.054;2023-04-25T02:54:36;100306.63;;;6.46;96.00
72925;BME280;61070;50.794;7.054;2023-04-25T02:57:01;100302.28;;;6.27;96.51
72925;BME280;61070;50.794;7.054;2023-04-25T02:59:28;100298.78;;;6.25;97.39
72925;BME280;61070;50.794;7.054;2023-04-25T03:01:53;100292.63;;;6.17;97.29
72925;BME280;61070;50.794;7.054;2023-04-25T03:04:18;100291.75;;;6.19;97.04
72925;BME280;61070;50.794;7.054;2023-04-25T03:06:44;100295.25;;;6.27;95.73
72925;BME280;61070;50.794;7.054;2023-04-25T03:09:09;100294.38;;;6.18;96.96
72925;BME280;61070;50.794;7.054;2023-04-25T03:11:36;100292.63;;;6.20;96.36
72925;BME280;61070;50.794;7.054;2023-04-25T03:14:02;100291.78;;;6.13;96.31
72925;BME280;61070;50.794;7.054;2023-04-25T03:16:27;100292.63;;;6.09;96.75
72925;BME280;61070;50.794;7.054;2023-04-25T03:18:52;100302.25;;;6.11;97.53
72925;BME280;61070;50.794;7.054;2023-04-25T03:21:18;100301.41;;;6.06;97.29
72925;BME280;61070;50.794;7.054;2023-04-25T03:23:43;100302.28;;;6.15;96.82
72925;BME280;61070;50.794;7.054;2023-04-25T03:26:08;100293.50;;;6.19;96.78
72925;BME280;61070;50.794;7.054;2023-04-25T03:28:33;100302.25;;;6.21;97.29
72925;BME280;61070;50.794;7.054;2023-04-25T03:30:59;100300.50;;;6.20;97.15
72925;BME280;61070;50.794;7.054;2023-04-25T03:33:24;100291.78;;;6.13;97.29
72925;BME280;61070;50.794;7.054;2023-04-25T03:35:49;100296.16;;;6.16;98.17
72925;BME280;61070;50.794;7.054;2023-04-25T03:38:15;100295.25;;;6.17;97.87
72925;BME280;61070;50.794;7.054;2023-04-25T03:40:40;100299.63;;;6.19;98.01
72925;BME280;61070;50.794;7.054;2023-04-25T03:43:06;100298.75;;;6.26;97.06
72925;BME280;61070;50.794;7.054;2023-04-25T03:45:31;100312.78;;;6.22;96.68
72925;BME280;61070;50.794;7.054;2023-04-25T03:47:56;100298.75;;;6.28;96.34
72925;BME280;61070;50.794;7.054;2023-04-25T03:50:22;100307.53;;;6.15;97.20
72925;BME280;61070;50.794;7.054;2023-04-25T03:52:47;100306.66;;;6.26;96.76
72925;BME280;61070;50.794;7.054;2023-04-25T03:55:12;100313.66;;;6.30;96.72
72925;BME280;61070;50.794;7.054;2023-04-25T03:57:37;100311.91;;;6.29;96.58
72925;BME280;61070;50.794;7.054;2023-04-25T04:00:03;100318.94;;;6.27;97.13
72925;BME280;61070;50.794;7.054;2023-04-25T04:02:29;100315.41;;;6.27;96.95
72925;BME280;61070;50.794;7.054;2023-04-25T04:04:54;100317.16;;;6.32;96.92
72925;BME280;61070;50.794;7.054;2023-04-25T04:07:21;100311.88;;;6.41;96.04
72925;BME280;61070;50.794;7.054;2023-04-25T04:09:47;100317.19;;;6.35;96.81
72925;BME280;61070;50.794;7.054;2023-04-25T04:12:12;100320.69;;;6.36;96.43
72925;BME280;61070;50.794;7.054;2023-04-25T04:14:37;100325.03;;;6.34;97.26
72925;BME280;61070;50.794;7.054;2023-04-25T04:17:02;100317.16;;;6.37;96.53
72925;BME280;61070;50.794;7.054;2023-04-25T04:19:28;100315.41;;;6.28;97.32
72925;BME280;61070;50.794;7.054;2023-04-25T04:21:53;100326.81;;;6.38;97.01
72925;BME280;61070;50.794;7.054;2023-04-25T04:24:19;100327.66;;;6.34;97.33
72925;BME280;61070;50.794;7.054;2023-04-25T04:26:44;100336.47;;;6.36;97.74
72925;BME280;61070;50.794;7.054;2023-04-25T04:29:10;100339.94;;;6.41;97.82
72925;BME280;61070;50.794;7.054;2023-04-25T04:31:35;100344.31;;;6.53;97.29
72925;BME280;61070;50.794;7.054;2023-04-25T04:34:01;100347.84;;;6.44;97.19
72925;BME280;61070;50.794;7.054;2023-04-25T04:36:27;100346.06;;;6.54;96.90
72925;BME280;61070;50.794;7.054;2023-04-25T04:38:52;100347.84;;;6.39;97.32
72925;BME280;61070;50.794;7.054;2023-04-25T04:41:18;100343.44;;;6.45;97.88
72925;BME280;61070;50.794;7.054;2023-04-25T04:43:44;100352.22;;;6.39;98.08
72925;BME280;61070;50.794;7.054;2023-04-25T04:46:10;100347.84;;;6.49;97.69
72925;BME280;61070;50.794;7.054;2023-04-25T04:48:35;100357.47;;;6.45;98.28
72925;BME280;61070;50.794;7.054;2023-04-25T04:51:01;100355.72;;;6.53;97.95
72925;BME280;61070;50.794;7.054;2023-04-25T04:53:26;100361.88;;;6.45;97.92
72925;BME280;61070;50.794;7.054;2023-04-25T04:55:52;100355.75;;;6.47;98.15
72925;BME280;61070;50.794;7.054;2023-04-25T04:58:17;100362.72;;;6.56;98.10
72925;BME280;61070;50.794;7.054;2023-04-25T05:00:43;100368.03;;;6.47;98.52
72925;BME280;61070;50.794;7.054;2023-04-25T05:03:08;100369.75;;;6.52;98.48
72925;BME280;61070;50.794;7.054;2023-04-25T05:05:33;100371.50;;;6.55;98.01
72925;BME280;61070;50.794;7.054;2023-04-25T05:07:58;100378.53;;;6.62;97.49
72925;BME280;61070;50.794;7.054;2023-04-25T05:10:26;100377.66;;;6.54;98.75
72925;BME280;61070;50.794;7.054;2023-04-25T05:12:51;100384.66;;;6.55;98.63
72925;BME280;61070;50.794;7.054;2023-04-25T05:15:16;100385.56;;;6.58;98.26
72925;BME280;61070;50.794;7.054;2023-04-25T05:17:42;100395.19;;;6.55;98.74
72925;BME280;61070;50.794;7.054;2023-04-25T05:20:07;100391.69;;;6.63;98.11
72925;BME280;61070;50.794;7.054;2023-04-25T05:22:35;100395.19;;;6.65;98.51
72925;BME280;61070;50.794;7.054;2023-04-25T05:25:01;100401.34;;;6.70;99.00
72925;BME280;61070;50.794;7.054;2023-04-25T05:27:26;100397.84;;;6.68;98.39
72925;BME280;61070;50.794;7.054;2023-04-25T05:29:51;100395.16;;;6.78;98.12
72925;BME280;61070;50.794;7.054;2023-04-25T05:32:17;100399.53;;;6.86;97.57
72925;BME280;61070;50.794;7.054;2023-04-25T05:34:43;100400.44;;;6.91;98.03
72925;BME280;61070;50.794;7.054;2023-04-25T05:37:08;100406.56;;;6.93;97.27
72925;BME280;61070;50.794;7.054;2023-04-25T05:39:33;100399.50;;;7.08;96.82
72925;BME280;61070;50.794;7.054;2023-04-25T05:41:59;100406.50;;;7.15;94.80
72925;BME280;61070;50.794;7.054;2023-04-25T05:44:24;100412.66;;;7.17;96.20
72925;BME280;61070;50.794;7.054;2023-04-25T05:46:50;100408.22;;;7.22;95.24
72925;BME280;61070;50.794;7.054;2023-04-25T05:49:15;100419.63;;;7.38;95.00
72925;BME280;61070;50.794;7.054;2023-04-25T05:51:40;100420.47;;;7.40;93.78
72925;BME280;61070;50.794;7.054;2023-04-25T05:54:05;100422.19;;;7.47;92.90
72925;BME280;61070;50.794;7.054;2023-04-25T05:56:31;100416.88;;;7.62;91.50
72925;BME280;61070;50.794;7.054;2023-04-25T05:58:57;100412.50;;;7.56;90.22
72925;BME280;61070;50.794;7.054;2023-04-25T06:01:23;100422.16;;;7.57;89.63
72925;BME280;61070;50.794;7.054;2023-04-25T06:03:48;100423.94;;;7.54;89.46
72925;BME280;61070;50.794;7.054;2023-04-25T06:06:14;100429.19;;;7.60;88.98
72925;BME280;61070;50.794;7.054;2023-04-25T06:08:40;100429.97;;;7.77;89.25
72925;BME280;61070;50.794;7.054;2023-04-25T06:11:05;100428.19;;;7.85;88.15
72925;BME280;61070;50.794;7.054;2023-04-25T06:13:31;100431.75;;;7.75;88.57
72925;BME280;61070;50.794;7.054;2023-04-25T06:15:56;100430.91;;;7.70;88.64
72925;BME280;61070;50.794;7.054;2023-04-25T06:18:21;100434.47;;;7.60;88.09
72925;BME280;61070;50.794;7.054;2023-04-25T06:20:47;100439.69;;;7.65;88.52
72925;BME280;61070;50.794;7.054;2023-04-25T06:23:12;100439.66;;;7.81;87.64
72925;BME280;61070;50.794;7.054;2023-04-25T06:25:37;100440.56;;;7.71;87.97
72925;BME280;61070;50.794;7.054;2023-04-25T06:28:03;100430.78;;;7.88;87.84
72925;BME280;61070;50.794;7.054;2023-04-25T06:30:28;100433.53;;;7.73;86.29
72925;BME280;61070;50.794;7.054;2023-04-25T06:32:53;100430.78;;;7.95;86.25
72925;BME280;61070;50.794;7.054;2023-04-25T06:35:19;100429.00;;;7.98;85.82
72925;BME280;61070;50.794;7.054;2023-04-25T06:37:44;100438.56;;;8.11;85.37
72925;BME280;61070;50.794;7.054;2023-04-25T06:40:10;100426.38;;;7.94;85.54
72925;BME280;61070;50.794;7.054;2023-04-25T06:42:36;100420.13;;;8.10;84.83
72925;BME280;61070;50.794;7.054;2023-04-25T06:45:01;100426.22;;;8.21;84.78
72925;BME280;61070;50.794;7.054;2023-04-25T06:47:27;100430.56;;;8.28;83.74
72925;BME280;61070;50.794;7.054;2023-04-25T06:49:52;100433.97;;;8.45;83.10
72925;BME280;61070;50.794;7.054;2023-04-25T06:52:17;100434.69;;;8.66;81.76
72925;BME280;61070;50.794;7.054;2023-04-25T06:54:43;100430.31;;;8.65;82.05
72925;BME280;61070;50.794;7.054;2023-04-25T06:57:08;100444.31;;;8.71;81.14
72925;BME280;61070;50.794;7.054;2023-04-25T06:59:34;100446.13;;;8.66;79.33
72925;BME280;61070;50.794;7.054;2023-04-25T07:01:59;100445.19;;;8.72;79.58
72925;BME280;61070;50.794;7.054;2023-04-25T07:04:24;100448.63;;;8.83;78.52
72925;BME280;61070;50.794;7.054;2023-04-25T07:06:50;100449.50;;;8.87;78.79
72925;BME280;61070;50.794;7.054;2023-04-25T07:09:15;100437.84;;;9.04;76.44
72925;BME280;61070;50.794;7.054;2023-04-25T07:11:41;100443.19;;;9.01;74.49
72925;BME280;61070;50.794;7.054;2023-04-25T07:14:06;100446.00;;;8.85;75.49
72925;BME280;61070;50.794;7.054;2023-04-25T07:16:32;100446.66;;;9.03;75.92
72925;BME280;61070;50.794;7.054;2023-04-25T07:18:57;100454.09;;;8.59;77.51
72925;BME280;61070;50.794;7.054;2023-04-25T07:21:22;100471.41;;;8.93;77.01
72925;BME280;61070;50.794;7.054;2023-04-25T07:23:47;100468.88;;;8.83;75.94
72925;BME280;61070;50.794;7.054;2023-04-25T07:26:13;100466.78;;;9.17;75.41
72925;BME280;61070;50.794;7.054;2023-04-25T07:28:38;100468.78;;;8.95;74.19
72925;BME280;61070;50.794;7.054;2023-04-25T07:31:04;100470.44;;;9.05;75.73
72925;BME280;61070;50.794;7.054;2023-04-25T07:33:30;100461.31;;;9.35;75.05
72925;BME280;61070;50.794;7.054;2023-04-25T07:35:55;100462.13;;;9.43;74.78
72925;BME280;61070;50.794;7.054;2023-04-25T07:38:21;100465.56;;;9.50;70.93
72925;BME280;61070;50.794;7.054;2023-04-25T07:40:49;100467.19;;;9.61;72.06
72925;BME280;61070;50.794;7.054;2023-04-25T07:43:15;100469.31;;;9.32;71.12
72925;BME280;61070;50.794;7.054;2023-04-25T07:45:45;100464.94;;;9.29;70.75
72925;BME280;61070;50.794;7.054;2023-04-25T07:48:10;100472.66;;;9.46;69.60
72925;BME280;61070;50.794;7.054;2023-04-25T07:50:36;100468.63;;;9.12;71.05
72925;BME280;61070;50.794;7.054;2023-04-25T07:53:01;100469.25;;;9.35;66.95
72925;BME280;61070;50.794;7.054;2023-04-25T07:55:27;100465.78;;;9.31;67.66
72925;BME280;61070;50.794;7.054;2023-04-25T07:57:53;100479.00;;;9.28;66.65
72925;BME280;61070;50.794;7.054;2023-04-25T08:00:18;100488.88;;;9.11;67.24
72925;BME280;61070;50.794;7.054;2023-04-25T08:02:44;100487.06;;;9.16;68.88
72925;BME280;61070;50.794;7.054;2023-04-25T08:05:09;100496.75;;;9.16;69.00
72925;BME280;61070;50.794;7.054;2023-04-25T08:07:37;100491.31;;;9.32;66.08
72925;BME280;61070;50.794;7.054;2023-04-25T08:10:05;100494.53;;;9.60;65.78
72925;BME280;61070;50.794;7.054;2023-04-25T08:12:30;100503.06;;;9.85;64.13
72925;BME280;61070;50.794;7.054;2023-04-25T08:14:56;100510.94;;;9.90;63.50
72925;BME280;61070;50.794;7.054;2023-04-25T08:17:21;100507.84;;;9.53;64.54
72925;BME280;61070;50.794;7.054;2023-04-25T08:19:46;100515.63;;;9.67;65.58
72925;BME280;61070;50.794;7.054;2023-04-25T08:22:11;100516.56;;;9.61;66.85
72925;BME280;61070;50.794;7.054;2023-04-25T08:24:37;100526.06;;;9.79;66.08
72925;BME280;61070;50.794;7.054;2023-04-25T08:27:03;100535.97;;;9.58;63.76
72925;BME280;61070;50.794;7.054;2023-04-25T08:29:28;100533.44;;;9.48;63.40
72925;BME280;61070;50.794;7.054;2023-04-25T08:31:53;100536.13;;;9.46;63.85
72925;BME280;61070;50.794;7.054;2023-04-25T08:34:19;100546.44;;;9.69;63.97
72925;BME280;61070;50.794;7.054;2023-04-25T08:36:45;100548.16;;;9.75;63.26
72925;BME280;61070;50.794;7.054;2023-04-25T08:39:10;100551.00;;;9.56;63.72
72925;BME280;61070;50.794;7.054;2023-04-25T08:41:37;100560.69;;;9.57;63.78
72925;BME280;61070;50.794;7.054;2023-04-25T08:44:03;100550.97;;;9.59;62.47
72925;BME280;61070;50.794;7.054;2023-04-25T08:46:30;100560.38;;;9.86;62.70
72925;BME280;61070;50.794;7.054;2023-04-25T08:49:00;100556.72;;;9.95;63.15
72925;BME280;61070;50.794;7.054;2023-04-25T08:51:26;100557.31;;;10.18;62.05
72925;BME280;61070;50.794;7.054;2023-04-25T08:53:56;100566.78;;;10.41;62.10
72925;BME280;61070;50.794;7.054;2023-04-25T08:56:24;100573.84;;;10.40;60.61
72925;BME280;61070;50.794;7.054;2023-04-25T08:58:50;100576.00;;;10.75;61.63
72925;BME280;61070;50.794;7.054;2023-04-25T09:01:16;100577.72;;;10.79;58.80
72925;BME280;61070;50.794;7.054;2023-04-25T09:03:44;100573.84;;;10.42;58.18
72925;BME280;61070;50.794;7.054;2023-04-25T09:06:12;100583.28;;;10.61;57.69
72925;BME280;61070;50.794;7.054;2023-04-25T09:08:37;100589.25;;;10.77;57.25
72925;BME280;61070;50.794;7.054;2023-04-25T09:11:05;100585.00;;;10.65;55.82
72925;BME280;61070;50.794;7.054;2023-04-25T09:13:31;100590.81;;;10.90;54.47
72925;BME280;61070;50.794;7.054;2023-04-25T09:15:57;100594.53;;;10.78;52.53
72925;BME280;61070;50.794;7.054;2023-04-25T09:18:24;100598.06;;;10.77;55.63
72925;BME280;61070;50.794;7.054;2023-04-25T09:20:55;100608.50;;;10.90;53.67
72925;BME280;61070;50.794;7.054;2023-04-25T09:23:22;100607.31;;;10.46;53.23
72925;BME280;61070;50.794;7.054;2023-04-25T09:25:52;100605.94;;;10.13;54.62
72925;BME280;61070;50.794;7.054;2023-04-25T09:28:26;100608.75;;;9.96;56.54
72925;BME280;61070;50.794;7.054;2023-04-25T09:30:58;100611.91;;;10.30;57.46
72925;BME280;61070;50.794;7.054;2023-04-25T09:33:34;100604.91;;;10.28;56.82
72925;BME280;61070;50.794;7.054;2023-04-25T09:36:05;100604.69;;;10.46;55.42
72925;BME280;61070;50.794;7.054;2023-04-25T09:38:44;100622.22;;;10.53;54.58
72925;BME280;61070;50.794;7.054;2023-04-25T09:41:10;100620.63;;;10.43;55.60
72925;BME280;61070;50.794;7.054;2023-04-25T09:43:36;100624.84;;;10.58;55.69
72925;BME280;61070;50.794;7.054;2023-04-25T09:46:02;100631.94;;;10.53;55.30
72925;BME280;61070;50.794;7.054;2023-04-25T09:48:32;100625.38;;;10.83;54.48
72925;BME280;61070;50.794;7.054;2023-04-25T09:51:11;100631.22;;;10.43;54.22
72925;BME280;61070;50.794;7.054;2023-04-25T09:53:44;100627.63;;;10.45;54.77
72925;BME280;61070;50.794;7.054;2023-04-25T09:56:12;100639.28;;;10.29;54.49
72925;BME280;61070;50.794;7.054;2023-04-25T09:58:38;100630.44;;;10.33;55.32
72925;BME280;61070;50.794;7.054;2023-04-25T10:01:09;100643.41;;;10.53;55.46
72925;BME280;61070;50.794;7.054;2023-04-25T10:03:36;100641.44;;;10.70;55.86
72925;BME280;61070;50.794;7.054;2023-04-25T10:06:04;100645.53;;;10.25;54.96
72925;BME280;61070;50.794;7.054;2023-04-25T10:08:33;100651.63;;;10.33;55.56
72925;BME280;61070;50.794;7.054;2023-04-25T10:11:03;100657.69;;;10.40;54.89
72925;BME280;61070;50.794;7.054;2023-04-25T10:13:30;100648.22;;;10.17;54.76
72925;BME280;61070;50.794;7.054;2023-04-25T10:16:00;100649.78;;;10.38;55.18
72925;BME280;61070;50.794;7.054;2023-04-25T10:18:28;100654.13;;;10.45;55.35
72925;BME280;61070;50.794;7.054;2023-04-25T10:20:55;100656.59;;;10.59;55.71
72925;BME280;61070;50.794;7.054;2023-04-25T10:23:21;100655.63;;;10.66;55.78
72925;BME280;61070;50.794;7.054;2023-04-25T10:25:46;100663.50;;;10.71;55.70
72925;BME280;61070;50.794;7.054;2023-04-25T10:28:13;100667.09;;;10.67;53.90
72925;BME280;61070;50.794;7.054;2023-04-25T10:30:57;100669.91;;;10.55;55.27
72925;BME280;61070;50.794;7.054;2023-04-25T10:33:33;100673.88;;;10.12;55.58
72925;BME280;61070;50.794;7.054;2023-04-25T10:36:11;100676.56;;;10.08;56.56
72925;BME280;61070;50.794;7.054;2023-04-25T10:38:37;100678.44;;;9.95;56.31
72925;BME280;61070;50.794;7.054;2023-04-25T10:41:07;100692.56;;;9.96;56.93
72925;BME280;61070;50.794;7.054;2023-04-25T10:43:43;100680.38;;;9.78;56.92
72925;BME280;61070;50.794;7.054;2023-04-25T10:46:22;100676.03;;;9.71;57.75
72925;BME280;61070;50.794;7.054;2023-04-25T10:48:59;100678.78;;;9.60;58.40
72925;BME280;61070;50.794;7.054;2023-04-25T10:51:26;100682.34;;;9.56;59.48
72925;BME280;61070;50.794;7.054;2023-04-25T10:56:27;100673.38;;;9.71;59.56
72925;BME280;61070;50.794;7.054;2023-04-25T10:59:15;100676.72;;;9.92;59.68
72925;BME280;61070;50.794;7.054;2023-04-25T11:01:45;100680.16;;;10.01;59.54
72925;BME280;61070;50.794;7.054;2023-04-25T11:04:29;100681.19;;;9.84;59.78
72925;BME280;61070;50.794;7.054;2023-04-25T11:09:29;100677.75;;;9.78;59.68
72925;BME280;61070;50.794;7.054;2023-04-25T11:11:59;100681.31;;;9.72;58.96
72925;BME280;61070;50.794;7.054;2023-04-25T11:14:26;100677.63;;;9.90;59.00
72925;BME280;61070;50.794;7.054;2023-04-25T11:16:55;100681.03;;;10.01;58.35
72925;BME280;61070;50.794;7.054;2023-04-25T11:19:21;100675.06;;;10.67;56.71
72925;BME280;61070;50.794;7.054;2023-04-25T11:21:47;100672.63;;;11.15;56.02
72925;BME280;61070;50.794;7.054;2023-04-25T11:24:12;100679.38;;;10.72;55.05
72925;BME280;61070;50.794;7.054;2023-04-25T11:26:37;100677.41;;;10.88;55.50
72925;BME280;61070;50.794;7.054;2023-04-25T11:29:03;100674.97;;;10.71;55.95
72925;BME280;61070;50.794;7.054;2023-04-25T11:31:29;100681.84;;;10.08;57.15
72925;BME280;61070;50.794;7.054;2023-04-25T11:33:56;100678.66;;;9.74;58.90
72925;BME280;61070;50.794;7.054;2023-04-25T11:36:23;100683.81;;;9.89;58.74
72925;BME280;61070;50.794;7.054;2023-04-25T11:38:50;100673.38;;;9.71;59.46
72925;BME280;61070;50.794;7.054;2023-04-25T11:41:16;100677.72;;;9.79;58.64
72925;BME280;61070;50.794;7.054;2023-04-25T11:43:42;100682.84;;;9.98;58.99
72925;BME280;61070;50.794;7.054;2023-04-25T11:46:08;100681.03;;;10.03;58.72
72925;BME280;61070;50.794;7.054;2023-04-25T11:48:42;100683.88;;;9.81;58.79
72925;BME280;61070;50.794;7.054;2023-04-25T11:51:08;100683.91;;;9.80;58.39
72925;BME280;61070;50.794;7.054;2023-04-25T11:53:34;100683.00;;;9.81;53.67
72925;BME280;61070;50.794;7.054;2023-04-25T11:56:01;100687.44;;;9.79;53.22
72925;BME280;61070;50.794;7.054;2023-04-25T11:58:26;100685.50;;;9.95;52.27
72925;BME280;61070;50.794;7.054;2023-04-25T12:00:51;100690.91;;;9.87;49.76
72925;BME280;61070;50.794;7.054;2023-04-25T12:03:18;100686.38;;;9.98;49.21
72925;BME280;61070;50.794;7.054;2023-04-25T12:05:44;100687.91;;;10.24;50.19
72925;BME280;61070;50.794;7.054;2023-04-25T12:08:13;100693.22;;;10.17;50.52
72925;BME280;61070;50.794;7.054;2023-04-25T12:10:40;100691.38;;;10.27;50.91
72925;BME280;61070;50.794;7.054;2023-04-25T12:13:19;100695.38;;;10.63;51.39
72925;BME280;61070;50.794;7.054;2023-04-25T12:15:45;100694.19;;;10.89;50.76
72925;BME280;61070;50.794;7.054;2023-04-25T12:18:10;100700.47;;;10.82;50.00
72925;BME280;61070;50.794;7.054;2023-04-25T12:20:35;100699.31;;;11.01;51.68
72925;BME280;61070;50.794;7.054;2023-04-25T12:23:05;100695.88;;;10.94;51.04
72925;BME280;61070;50.794;7.054;2023-04-25T12:25:39;100697.63;;;11.55;51.00
72925;BME280;61070;50.794;7.054;2023-04-25T12:28:19;100695.25;;;11.94;50.01
72925;BME280;61070;50.794;7.054;2023-04-25T12:31:02;100688.72;;;12.10;49.55
72925;BME280;61070;50.794;7.054;2023-04-25T12:33:30;100688.28;;;12.36;48.92
72925;BME280;61070;50.794;7.054;2023-04-25T12:35:56;100705.53;;;12.59;49.73
72925;BME280;61070;50.794;7.054;2023-04-25T12:38:28;100694.50;;;11.86;50.02
72925;BME280;61070;50.794;7.054;2023-04-25T12:40:58;100693.84;;;11.70;49.33
72925;BME280;61070;50.794;7.054;2023-04-25T12:43:24;100690.31;;;11.70;48.37
72925;BME280;61070;50.794;7.054;2023-04-25T12:45:53;100685.28;;;12.07;47.23
72925;BME280;61070;50.794;7.054;2023-04-25T12:48:20;100686.31;;;11.98;47.70
72925;BME280;61070;50.794;7.054;2023-04-25T12:50:46;100688.41;;;11.78;48.07
72925;BME280;61070;50.794;7.054;2023-04-25T12:53:19;100690.13;;;11.83;47.33
72925;BME280;61070;50.794;7.054;2023-04-25T12:55:46;100685.00;;;11.70;47.65
72925;BME280;61070;50.794;7.054;2023-04-25T12:58:12;100682.97;;;11.87;48.49
72925;BME280;61070;50.794;7.054;2023-04-25T13:00:38;100692.94;;;12.23;45.74